Hovedside
METAR-TAF:

METAR-TAF

Lufthavner :

Kuusamo lufthavn

Kuusamo, Finland

breddegrad: 65-58N, lengdegrad: 029-11E, høyde over havet: 262 m

Gjeldene værobservasjon

Denne rapporten ble laget for 40 minutter siden, klokken 00:50 UTC
Vind 11 kt fra Sør
Temperatur -2°C
Luftfuktighet 63%
Trykk 1009 hPa
Sikt 10 km eller mer
ingen skyer under 1500 m og ingen bygeskyer

METAR: EFKS 230050Z AUTO 18011KT CAVOK M02/M08 Q1009

Tid: 03:30 (01:30 UTC)

Varsel

Denne rapporten ble laget for 5 timer og 2 minutter siden, klokken 20:28 UTC
Varsel gyldig fra 22. klokken 21 UTC til 22. klokken 23 UTC
Vind 8 kt fra Sør
Sikt 10 km eller mer
ingen skyer under 1500 m og ingen bygeskyer

TAF: EFKS 222028Z 2221/2223 18008KT CAVOK

Værobservasjoner og værvarsel for over 4000 flyplasser (METAR- og TAF-rapporter).

Tilgjengelige stasjoner er representert av de røde og gule prikkene på kartet.

Hold musepekeren over prikken for å se navnet på stasjonen.

Klikk så for å se værobservasjoner og -varsler.

For å forandre kartet kan du klikke på den grønne knappen med svart kryss for å zoome inn, på den grønne knappen med strek for å zoome ut, eller på de grønne pilene for å se tilstøtende kart.


METAR-TAF: